Dobrodošli na spletni strani vremenske postaje Senovo. Vse informacije so informativnega značaja, saj vremenska postaja ni del državne mreže meteoroloških postaj. OBVESTILO: Letni količini padavin navedeni na spletni strani je potrebno prišteti 98,1 mm, zaradi izgube podatkov.


Posebna pozornost v zvezi z vremenskimi dogajanji ni potrebna.    Posebna pozornost v zvezi z vremenskimi dogajanji ni potrebna.

Pogled proti Armezu več informacij Pogled proti Armezu


Lisca več informacij Lisca


Radar strel več informacij blitzortung!


Radar padavin več informacij rain snow radar


Obiščite še:

Template documentation
and downloads

And another site



Weather Underground, zgodovina - Tekstovno

Dnevni povzetek za Avgust 5, 2017 Enote:  Metrično    Angleško   Obe
« Predhodni Dan
Naslednji Dan »
Dnevni Tedenski Mesečni Letni Po meri
  Višja: Nižja: Povprečje:
Temperatura: 33.9 °C 19.8 °C 27.5 °C
Točka rosišča: 20.6 °C 15.1 °C 18.6 °C
Vlažnost: 87 % 42 % 60 %
Hitrost vetra: 13.5 km/h 0.0 km/h 3.5 km/h
Sunki vetra: 34.3 km/h - -
Veter:- - ESE
Zračni tlak: 1016.1 hPa 1013.1 hPa -
Padavine: 0.0 mm    
Historical Graphs
 
 
Tabelarni podarki za Avgust 5, 2017
Čas Temperatura Točka rosišča Zračni tlak Veter Hitrost vetra Sunki vetra Vlažnost Intenziteta padavin (urna)
00:04 27.2 °C 20.6 °C 1014.1 hPa NE 9.3 km/h 28.0 km/h 67 % 0.0 mm
00:09 27.5 °C 19.6 °C 1014.1 hPa NE 11.4 km/h 28.0 km/h 62 % 0.0 mm
00:14 27.7 °C 19.5 °C 1014.1 hPa ENE 10.6 km/h 24.5 km/h 61 % 0.0 mm
00:19 27.7 °C 18.9 °C 1014.1 hPa NE 11.9 km/h 29.1 km/h 59 % 0.0 mm
00:24 27.7 °C 18.1 °C 1014.1 hPa NE 13.5 km/h 34.3 km/h 56 % 0.0 mm
00:29 27.6 °C 17.7 °C 1014.1 hPa ENE 11.3 km/h 34.3 km/h 55 % 0.0 mm
00:34 27.6 °C 18.1 °C 1014.1 hPa ENE 8.8 km/h 19.5 km/h 56 % 0.0 mm
00:39 27.5 °C 17.4 °C 1014.1 hPa ENE 8.0 km/h 19.8 km/h 54 % 0.0 mm
00:44 27.5 °C 17.1 °C 1014.1 hPa ENE 9.7 km/h 20.9 km/h 53 % 0.0 mm
00:49 27.5 °C 16.4 °C 1014.1 hPa ENE 11.3 km/h 24.5 km/h 51 % 0.0 mm
00:54 27.4 °C 16.4 °C 1014.1 hPa NE 11.1 km/h 24.5 km/h 51 % 0.0 mm
00:59 27.3 °C 16.6 °C 1014.1 hPa ENE 10.5 km/h 24.5 km/h 52 % 0.0 mm
01:04 27.2 °C 16.2 °C 1015.1 hPa East 8.2 km/h 17.7 km/h 51 % 0.0 mm
01:09 27.2 °C 15.9 °C 1015.1 hPa East 7.2 km/h 18.3 km/h 50 % 0.0 mm
01:14 27.2 °C 15.9 °C 1015.1 hPa ENE 10.0 km/h 19.8 km/h 50 % 0.0 mm
01:19 27.2 °C 15.9 °C 1014.1 hPa ENE 9.3 km/h 19.8 km/h 50 % 0.0 mm
01:24 27.1 °C 15.8 °C 1014.1 hPa ENE 6.8 km/h 15.4 km/h 50 % 0.0 mm
01:29 27.0 °C 15.7 °C 1014.1 hPa ENE 8.0 km/h 20.6 km/h 50 % 0.0 mm
01:34 27.0 °C 15.4 °C 1014.1 hPa ENE 9.0 km/h 20.6 km/h 49 % 0.0 mm
01:39 27.0 °C 15.1 °C 1014.1 hPa ENE 8.2 km/h 20.6 km/h 48 % 0.0 mm
01:44 27.1 °C 15.4 °C 1014.1 hPa ENE 8.4 km/h 20.9 km/h 49 % 0.0 mm
01:49 27.0 °C 15.1 °C 1014.1 hPa ENE 10.0 km/h 25.9 km/h 48 % 0.0 mm
01:50 27.0 °C 15.1 °C 1014.1 hPa ENE 10.3 km/h 25.9 km/h 48 % 0.0 mm
01:55 26.9 °C 15.6 °C 1014.1 hPa ENE 8.7 km/h 25.9 km/h 50 % 0.0 mm
02:00 26.8 °C 15.2 °C 1014.1 hPa ENE 6.8 km/h 15.4 km/h 49 % 0.0 mm
02:05 26.8 °C 15.2 °C 1013.1 hPa ENE 8.7 km/h 23.3 km/h 49 % 0.0 mm
02:10 26.9 °C 15.3 °C 1013.1 hPa ENE 11.6 km/h 23.3 km/h 49 % 0.0 mm
02:15 26.9 °C 15.3 °C 1013.1 hPa NE 11.3 km/h 25.6 km/h 49 % 0.0 mm
02:20 26.9 °C 15.3 °C 1014.1 hPa ENE 12.2 km/h 28.5 km/h 49 % 0.0 mm
02:25 26.9 °C 15.3 °C 1014.1 hPa ENE 12.2 km/h 28.5 km/h 49 % 0.0 mm
02:30 26.8 °C 15.2 °C 1014.1 hPa ENE 9.8 km/h 22.4 km/h 49 % 0.0 mm
02:35 26.8 °C 15.2 °C 1013.1 hPa ENE 8.2 km/h 22.4 km/h 49 % 0.0 mm
02:40 26.7 °C 15.1 °C 1013.1 hPa ESE 7.1 km/h 13.7 km/h 49 % 0.0 mm
02:45 26.6 °C 15.3 °C 1013.1 hPa ESE 5.6 km/h 13.7 km/h 50 % 0.0 mm
02:50 26.5 °C 15.2 °C 1014.1 hPa ESE 4.5 km/h 14.0 km/h 50 % 0.0 mm
02:55 26.4 °C 15.1 °C 1014.1 hPa East 5.0 km/h 14.0 km/h 50 % 0.0 mm
03:00 26.3 °C 15.1 °C 1014.1 hPa ESE 5.3 km/h 13.0 km/h 50 % 0.0 mm
03:05 26.2 °C 15.3 °C 1014.1 hPa SE 6.6 km/h 14.0 km/h 51 % 0.0 mm
03:10 25.9 °C 15.6 °C 1014.1 hPa SSE 6.6 km/h 14.0 km/h 53 % 0.0 mm
03:15 25.6 °C 15.6 °C 1014.1 hPa South 6.0 km/h 15.8 km/h 54 % 0.0 mm
03:20 25.4 °C 15.4 °C 1014.1 hPa South 6.0 km/h 15.8 km/h 54 % 0.0 mm
03:25 25.2 °C 15.5 °C 1014.1 hPa SSW 5.1 km/h 10.1 km/h 55 % 0.0 mm
03:30 24.9 °C 15.8 °C 1014.1 hPa South 5.6 km/h 10.5 km/h 57 % 0.0 mm
03:35 24.7 °C 15.9 °C 1014.1 hPa South 6.1 km/h 10.5 km/h 58 % 0.0 mm
03:40 24.5 °C 16.2 °C 1014.1 hPa SSW 3.4 km/h 10.5 km/h 60 % 0.0 mm
03:45 24.2 °C 15.9 °C 1014.1 hPa SSW 1.3 km/h 6.1 km/h 60 % 0.0 mm
03:50 23.9 °C 16.2 °C 1015.1 hPa NW 3.1 km/h 6.1 km/h 62 % 0.0 mm
03:55 23.6 °C 16.4 °C 1015.1 hPa NW 3.9 km/h 5.8 km/h 64 % 0.0 mm
04:00 23.3 °C 16.3 °C 1015.1 hPa WNW 2.3 km/h 5.8 km/h 65 % 0.0 mm
04:05 23.1 °C 16.4 °C 1015.1 hPa WNW 1.6 km/h 4.7 km/h 66 % 0.0 mm
04:10 22.9 °C 16.7 °C 1015.1 hPa NW 1.0 km/h 4.7 km/h 68 % 0.0 mm
04:15 22.7 °C 16.5 °C 1015.1 hPa Calm     68 % 0.0 mm
04:20 22.5 °C 16.5 °C 1015.1 hPa Calm     69 % 0.0 mm
04:25 22.3 °C 16.3 °C 1015.1 hPa Calm     69 % 0.0 mm
04:30 22.1 °C 16.4 °C 1015.1 hPa Calm     70 % 0.0 mm
04:35 21.9 °C 16.4 °C 1015.1 hPa Calm     71 % 0.0 mm
04:40 21.7 °C 16.4 °C 1015.1 hPa WNW 0.3 km/h 4.0 km/h 72 % 0.0 mm
04:45 21.6 °C 16.3 °C 1015.1 hPa NW 1.4 km/h 4.0 km/h 72 % 0.0 mm
04:50 21.4 °C 16.6 °C 1016.1 hPa West 1.8 km/h 4.0 km/h 74 % 0.0 mm
04:55 21.3 °C 16.5 °C 1016.1 hPa SW 1.3 km/h 4.0 km/h 74 % 0.0 mm
05:00 21.1 °C 16.7 °C 1016.1 hPa WSW 0.6 km/h 4.0 km/h 76 % 0.0 mm
05:05 21.0 °C 16.6 °C 1016.1 hPa Calm     76 % 0.0 mm
05:10 20.9 °C 16.7 °C 1016.1 hPa Calm     77 % 0.0 mm
05:19 20.7 °C 16.7 °C 1016.1 hPa Calm     78 % 0.0 mm
05:21 20.6 °C 16.6 °C 1016.1 hPa Calm     78 % 0.0 mm
05:22 20.6 °C 16.6 °C 1016.1 hPa Calm     78 % 0.0 mm
05:26 20.5 °C 16.7 °C 1016.1 hPa Calm     79 % 0.0 mm
05:27 20.5 °C 16.7 °C 1016.1 hPa Calm     79 % 0.0 mm
05:28 20.5 °C 16.7 °C 1016.1 hPa Calm     79 % 0.0 mm
05:33 20.4 °C 16.6 °C 1016.1 hPa Calm     79 % 0.0 mm
05:38 20.3 °C 16.7 °C 1016.1 hPa Calm     80 % 0.0 mm
05:43 20.2 °C 16.6 °C 1016.1 hPa Calm     80 % 0.0 mm
05:48 20.1 °C 16.6 °C 1016.1 hPa Calm     80 % 0.0 mm
05:53 20.0 °C 16.6 °C 1016.1 hPa Calm     81 % 0.0 mm
05:58 19.9 °C 16.7 °C 1016.1 hPa Calm     82 % 0.0 mm
06:03 19.9 °C 16.7 °C 1016.1 hPa Calm     82 % 0.0 mm
06:08 19.8 °C 16.6 °C 1016.1 hPa Calm     82 % 0.0 mm
06:13 19.8 °C 16.6 °C 1016.1 hPa Calm     82 % 0.0 mm
06:18 19.8 °C 16.8 °C 1016.1 hPa Calm     83 % 0.0 mm
06:23 19.8 °C 16.8 °C 1016.1 hPa Calm     83 % 0.0 mm
06:28 19.8 °C 16.8 °C 1016.1 hPa Calm     83 % 0.0 mm
06:33 19.8 °C 17.0 °C 1016.1 hPa Calm     84 % 0.0 mm
06:38 19.8 °C 17.2 °C 1016.1 hPa Calm     85 % 0.0 mm
06:44 19.9 °C 17.3 °C 1016.1 hPa Calm     85 % 0.0 mm
06:48 19.9 °C 17.5 °C 1016.1 hPa Calm     86 % 0.0 mm
06:53 20.0 °C 17.4 °C 1016.1 hPa Calm     85 % 0.0 mm
06:58 20.0 °C 17.4 °C 1016.1 hPa Calm     85 % 0.0 mm
07:04 20.1 °C 17.7 °C 1015.1 hPa Calm     86 % 0.0 mm
07:09 20.2 °C 17.8 °C 1015.1 hPa Calm     86 % 0.0 mm
07:14 20.4 °C 18.0 °C 1015.1 hPa Calm     86 % 0.0 mm
07:19 20.5 °C 18.1 °C 1015.1 hPa Calm     86 % 0.0 mm
07:24 20.6 °C 18.3 °C 1015.1 hPa Calm     87 % 0.0 mm
07:29 20.8 °C 18.6 °C 1015.1 hPa Calm     87 % 0.0 mm
07:34 21.0 °C 18.6 °C 1016.1 hPa Calm     86 % 0.0 mm
07:39 21.2 °C 18.8 °C 1016.1 hPa Calm     86 % 0.0 mm
07:44 21.4 °C 18.9 °C 1016.1 hPa Calm     86 % 0.0 mm
07:49 21.6 °C 19.2 °C 1015.1 hPa Calm     86 % 0.0 mm
07:54 21.8 °C 19.2 °C 1015.1 hPa Calm     85 % 0.0 mm
07:59 22.1 °C 19.1 °C 1015.1 hPa ESE 0.2 km/h 3.5 km/h 83 % 0.0 mm
08:04 22.5 °C 19.1 °C 1015.1 hPa ESE 0.8 km/h 4.0 km/h 81 % 0.0 mm
08:09 22.7 °C 19.3 °C 1015.1 hPa ESE 1.0 km/h 4.0 km/h 81 % 0.0 mm
08:14 23.0 °C 19.2 °C 1015.1 hPa East 0.3 km/h 2.6 km/h 79 % 0.0 mm
08:19 23.3 °C 19.2 °C 1016.1 hPa ESE 0.5 km/h 4.0 km/h 78 % 0.0 mm
08:24 23.5 °C 19.2 °C 1016.1 hPa ESE 0.6 km/h 4.0 km/h 77 % 0.0 mm
08:29 23.7 °C 19.2 °C 1016.1 hPa East 0.6 km/h 4.0 km/h 76 % 0.0 mm
08:34 23.9 °C 19.4 °C 1015.1 hPa East 1.3 km/h 4.3 km/h 76 % 0.0 mm
08:35 24.1 °C 19.4 °C 1015.1 hPa ESE 1.9 km/h 5.0 km/h 75 % 0.0 mm
08:40 24.5 °C 19.6 °C 1015.1 hPa ESE 2.6 km/h 5.0 km/h 74 % 0.0 mm
08:45 25.0 °C 19.4 °C 1015.1 hPa ESE 1.8 km/h 5.0 km/h 71 % 0.0 mm
08:50 25.4 °C 19.8 °C 1016.1 hPa ESE 0.6 km/h 4.0 km/h 71 % 0.0 mm
08:55 25.9 °C 19.6 °C 1016.1 hPa East 0.5 km/h 4.0 km/h 68 % 0.0 mm
09:00 26.3 °C 19.9 °C 1016.1 hPa East 0.5 km/h 3.5 km/h 68 % 0.0 mm
09:03 26.4 °C 19.8 °C 1016.1 hPa East 1.0 km/h 3.5 km/h 67 % 0.0 mm
09:08 26.7 °C 19.8 °C 1016.1 hPa East 1.0 km/h 3.5 km/h 66 % 0.0 mm
09:14 26.9 °C 19.8 °C 1016.1 hPa East 0.6 km/h 4.3 km/h 65 % 0.0 mm
09:18 27.2 °C 19.8 °C 1016.1 hPa East 1.4 km/h 4.3 km/h 64 % 0.0 mm
09:24 27.4 °C 19.5 °C 1016.1 hPa East 1.6 km/h 3.5 km/h 62 % 0.0 mm
09:29 27.7 °C 19.5 °C 1016.1 hPa ESE 1.4 km/h 4.3 km/h 61 % 0.0 mm
09:34 28.0 °C 19.5 °C 1016.1 hPa SE 1.0 km/h 6.1 km/h 60 % 0.0 mm
09:39 28.3 °C 19.8 °C 1016.1 hPa SSE 1.1 km/h 6.1 km/h 60 % 0.0 mm
09:44 28.6 °C 19.8 °C 1016.1 hPa SSE 0.8 km/h 4.7 km/h 59 % 0.0 mm
09:49 28.9 °C 20.1 °C 1016.1 hPa SSE 1.1 km/h 5.5 km/h 59 % 0.0 mm
09:54 29.1 °C 19.1 °C 1016.1 hPa SE 2.7 km/h 5.0 km/h 55 % 0.0 mm
09:59 29.5 °C 19.8 °C 1016.1 hPa ESE 2.7 km/h 5.8 km/h 56 % 0.0 mm
10:04 29.7 °C 19.7 °C 1016.1 hPa SE 3.9 km/h 10.5 km/h 55 % 0.0 mm
10:09 29.9 °C 19.3 °C 1016.1 hPa SE 4.8 km/h 10.5 km/h 53 % 0.0 mm
10:14 30.2 °C 19.3 °C 1016.1 hPa ESE 5.6 km/h 14.3 km/h 52 % 0.0 mm
10:19 30.3 °C 19.1 °C 1016.1 hPa ESE 6.6 km/h 14.3 km/h 51 % 0.0 mm
10:24 30.4 °C 18.8 °C 1016.1 hPa ESE 7.7 km/h 13.0 km/h 50 % 0.0 mm
10:29 30.6 °C 18.7 °C 1016.1 hPa ESE 7.1 km/h 13.0 km/h 49 % 0.0 mm
10:34 30.6 °C 18.3 °C 1016.1 hPa East 5.6 km/h 10.5 km/h 48 % 0.0 mm
10:39 30.6 °C 19.0 °C 1016.1 hPa East 6.1 km/h 10.5 km/h 50 % 0.0 mm
10:44 30.8 °C 19.2 °C 1016.1 hPa ESE 7.9 km/h 12.2 km/h 50 % 0.0 mm
10:49 30.8 °C 18.5 °C 1015.1 hPa East 7.6 km/h 12.2 km/h 48 % 0.0 mm
10:54 30.8 °C 18.8 °C 1015.1 hPa East 6.3 km/h 10.5 km/h 49 % 0.0 mm
10:59 30.9 °C 18.9 °C 1015.1 hPa East 5.8 km/h 10.5 km/h 49 % 0.0 mm
11:04 30.9 °C 18.6 °C 1016.1 hPa East 6.4 km/h 11.9 km/h 48 % 0.0 mm
11:06 30.9 °C 18.6 °C 1016.1 hPa East 6.4 km/h 11.9 km/h 48 % 0.0 mm
11:11 31.0 °C 18.7 °C 1016.1 hPa ESE 6.9 km/h 11.6 km/h 48 % 0.0 mm
11:16 31.1 °C 18.8 °C 1016.1 hPa SE 7.9 km/h 12.2 km/h 48 % 0.0 mm
11:22 31.2 °C 19.2 °C 1016.1 hPa SE 8.5 km/h 12.6 km/h 49 % 0.0 mm
11:27 31.3 °C 19.3 °C 1016.1 hPa SE 8.2 km/h 15.4 km/h 49 % 0.0 mm
11:32 31.4 °C 19.1 °C 1016.1 hPa SE 7.9 km/h 15.4 km/h 48 % 0.0 mm
11:37 31.5 °C 19.2 °C 1016.1 hPa SE 7.2 km/h 12.6 km/h 48 % 0.0 mm
11:42 31.6 °C 19.3 °C 1016.1 hPa ESE 6.9 km/h 12.2 km/h 48 % 0.0 mm
11:47 31.5 °C 18.8 °C 1016.1 hPa ESE 6.4 km/h 12.2 km/h 47 % 0.0 mm
11:52 31.6 °C 19.3 °C 1016.1 hPa ESE 5.8 km/h 10.1 km/h 48 % 0.0 mm
11:57 31.6 °C 18.9 °C 1016.1 hPa ESE 6.6 km/h 11.9 km/h 47 % 0.0 mm
12:02 31.7 °C 19.0 °C 1016.1 hPa ESE 7.6 km/h 17.2 km/h 47 % 0.0 mm
12:07 31.7 °C 19.0 °C 1016.1 hPa ESE 7.9 km/h 17.2 km/h 47 % 0.0 mm
12:12 31.6 °C 19.3 °C 1016.1 hPa East 6.9 km/h 13.7 km/h 48 % 0.0 mm
12:17 31.8 °C 19.1 °C 1016.1 hPa East 5.6 km/h 13.7 km/h 47 % 0.0 mm
12:22 31.8 °C 19.4 °C 1016.1 hPa ENE 6.6 km/h 16.9 km/h 48 % 0.0 mm
12:27 31.9 °C 19.5 °C 1016.1 hPa East 6.6 km/h 16.9 km/h 48 % 0.0 mm
12:32 32.0 °C 19.6 °C 1016.1 hPa East 4.8 km/h 12.2 km/h 48 % 0.0 mm
12:37 32.0 °C 19.6 °C 1016.1 hPa ENE 6.0 km/h 13.0 km/h 48 % 0.0 mm
12:42 32.0 °C 19.6 °C 1016.1 hPa East 6.0 km/h 13.0 km/h 48 % 0.0 mm
12:47 32.0 °C 19.3 °C 1016.1 hPa East 5.6 km/h 16.3 km/h 47 % 0.0 mm
12:52 32.0 °C 19.3 °C 1016.1 hPa ENE 5.1 km/h 16.3 km/h 47 % 0.0 mm
12:57 32.1 °C 19.7 °C 1016.1 hPa East 4.2 km/h 11.9 km/h 48 % 0.0 mm
13:02 32.1 °C 19.7 °C 1016.1 hPa East 3.5 km/h 9.7 km/h 48 % 0.0 mm
13:07 32.3 °C 20.2 °C 1016.1 hPa East 3.7 km/h 8.7 km/h 49 % 0.0 mm
13:12 32.4 °C 20.0 °C 1016.1 hPa ENE 4.0 km/h 8.7 km/h 48 % 0.0 mm
13:17 32.3 °C 19.9 °C 1016.1 hPa ESE 4.2 km/h 11.6 km/h 48 % 0.0 mm
13:22 32.5 °C 19.7 °C 1015.1 hPa SE 5.5 km/h 11.6 km/h 47 % 0.0 mm
13:27 32.6 °C 19.8 °C 1015.1 hPa SE 5.5 km/h 10.1 km/h 47 % 0.0 mm
13:32 32.5 °C 19.7 °C 1015.1 hPa ENE 4.5 km/h 10.1 km/h 47 % 0.0 mm
13:37 32.4 °C 20.0 °C 1015.1 hPa NNE 3.7 km/h 9.0 km/h 48 % 0.0 mm
13:42 32.5 °C 19.7 °C 1015.1 hPa NNE 4.7 km/h 11.9 km/h 47 % 0.0 mm
13:47 32.7 °C 19.9 °C 1015.1 hPa NE 4.5 km/h 11.9 km/h 47 % 0.0 mm
13:52 32.8 °C 20.0 °C 1014.1 hPa East 4.7 km/h 12.2 km/h 47 % 0.0 mm
13:57 32.9 °C 20.1 °C 1014.1 hPa East 5.0 km/h 12.2 km/h 47 % 0.0 mm
14:02 32.9 °C 20.1 °C 1014.1 hPa ENE 3.9 km/h 10.1 km/h 47 % 0.0 mm
14:07 33.0 °C 19.8 °C 1014.1 hPa East 4.5 km/h 10.1 km/h 46 % 0.0 mm
14:12 33.0 °C 19.8 °C 1014.1 hPa East 4.7 km/h 12.6 km/h 46 % 0.0 mm
14:17 33.1 °C 19.9 °C 1014.1 hPa East 4.8 km/h 12.6 km/h 46 % 0.0 mm
14:22 33.0 °C 19.8 °C 1014.1 hPa East 4.3 km/h 9.0 km/h 46 % 0.0 mm
14:27 33.1 °C 19.9 °C 1014.1 hPa East 3.7 km/h 9.7 km/h 46 % 0.0 mm
14:32 33.0 °C 19.8 °C 1014.1 hPa East 4.0 km/h 9.7 km/h 46 % 0.0 mm
14:33 33.0 °C 19.8 °C 1014.1 hPa East 4.2 km/h 9.7 km/h 46 % 0.0 mm
14:38 33.1 °C 19.9 °C 1014.1 hPa ENE 3.5 km/h 10.1 km/h 46 % 0.0 mm
14:43 33.2 °C 20.0 °C 1014.1 hPa ESE 3.4 km/h 10.1 km/h 46 % 0.0 mm
14:48 33.4 °C 20.6 °C 1014.1 hPa SE 4.3 km/h 9.3 km/h 47 % 0.0 mm
14:53 33.5 °C 20.3 °C 1014.1 hPa East 5.1 km/h 11.9 km/h 46 % 0.0 mm
14:58 33.5 °C 19.9 °C 1014.1 hPa ENE 4.8 km/h 11.9 km/h 45 % 0.0 mm
15:03 33.4 °C 19.8 °C 1014.1 hPa ENE 3.9 km/h 13.0 km/h 45 % 0.0 mm
15:08 33.5 °C 20.3 °C 1014.1 hPa ENE 3.4 km/h 13.0 km/h 46 % 0.0 mm
15:13 33.3 °C 19.8 °C 1014.1 hPa ENE 4.8 km/h 11.9 km/h 45 % 0.0 mm
15:18 33.3 °C 19.8 °C 1014.1 hPa East 6.0 km/h 12.2 km/h 45 % 0.0 mm
15:24 33.2 °C 19.7 °C 1014.1 hPa ENE 5.0 km/h 12.2 km/h 45 % 0.0 mm
15:29 33.3 °C 19.8 °C 1014.1 hPa East 5.1 km/h 11.9 km/h 45 % 0.0 mm
15:34 33.5 °C 19.9 °C 1014.1 hPa ESE 6.6 km/h 11.9 km/h 45 % 0.0 mm
15:39 33.7 °C 20.5 °C 1014.1 hPa SE 5.5 km/h 11.9 km/h 46 % 0.0 mm
15:44 33.8 °C 20.2 °C 1014.1 hPa ESE 5.1 km/h 12.6 km/h 45 % 0.0 mm
15:49 33.8 °C 20.2 °C 1014.1 hPa ESE 5.6 km/h 12.6 km/h 45 % 0.0 mm
15:54 33.8 °C 19.8 °C 1014.1 hPa East 5.1 km/h 11.9 km/h 44 % 0.0 mm
15:59 33.7 °C 19.8 °C 1014.1 hPa East 5.0 km/h 11.9 km/h 44 % 0.0 mm
16:04 33.8 °C 19.8 °C 1014.1 hPa ESE 5.3 km/h 10.5 km/h 44 % 0.0 mm
16:09 33.9 °C 19.9 °C 1014.1 hPa SE 6.3 km/h 10.1 km/h 44 % 0.0 mm
16:14 33.9 °C 19.6 °C 1014.1 hPa ESE 6.0 km/h 10.1 km/h 43 % 0.0 mm
16:19 33.8 °C 19.5 °C 1014.1 hPa East 5.3 km/h 9.7 km/h 43 % 0.0 mm
16:24 33.8 °C 19.5 °C 1014.1 hPa ESE 5.5 km/h 9.7 km/h 43 % 0.0 mm
16:29 33.8 °C 19.5 °C 1014.1 hPa East 4.5 km/h 9.3 km/h 43 % 0.0 mm
16:34 33.9 °C 19.6 °C 1014.1 hPa East 4.7 km/h 10.5 km/h 43 % 0.0 mm
16:39 33.9 °C 19.6 °C 1014.1 hPa East 5.6 km/h 11.9 km/h 43 % 0.0 mm
16:44 33.9 °C 19.6 °C 1014.1 hPa East 5.0 km/h 11.9 km/h 43 % 0.0 mm
16:49 33.8 °C 19.1 °C 1014.1 hPa East 4.2 km/h 9.7 km/h 42 % 0.0 mm
16:54 33.9 °C 19.2 °C 1014.1 hPa ESE 4.5 km/h 9.7 km/h 42 % 0.0 mm
16:59 33.8 °C 19.1 °C 1014.1 hPa East 4.5 km/h 9.7 km/h 42 % 0.0 mm
17:04 33.8 °C 19.1 °C 1013.1 hPa ENE 3.9 km/h 11.6 km/h 42 % 0.0 mm
17:09 33.9 °C 19.2 °C 1013.1 hPa East 4.5 km/h 11.6 km/h 42 % 0.0 mm
17:14 33.9 °C 19.2 °C 1013.1 hPa ESE 5.1 km/h 11.9 km/h 42 % 0.0 mm
17:19 33.9 °C 19.2 °C 1013.1 hPa ESE 5.8 km/h 11.9 km/h 42 % 0.0 mm
17:24 33.8 °C 19.1 °C 1013.1 hPa ESE 5.6 km/h 11.9 km/h 42 % 0.0 mm
17:27 33.8 °C 19.1 °C 1013.1 hPa East 5.6 km/h 12.6 km/h 42 % 0.0 mm
17:32 33.8 °C 19.1 °C 1013.1 hPa ESE 6.0 km/h 12.6 km/h 42 % 0.0 mm
17:42 33.7 °C 19.0 °C 1013.1 hPa ESE 5.8 km/h 14.0 km/h 42 % 0.0 mm
17:47 33.6 °C 18.9 °C 1013.1 hPa East 4.5 km/h 11.6 km/h 42 % 0.0 mm
17:52 33.5 °C 18.8 °C 1013.1 hPa East 4.5 km/h 11.6 km/h 42 % 0.0 mm
17:57 33.4 °C 18.7 °C 1013.1 hPa ESE 4.8 km/h 12.2 km/h 42 % 0.0 mm
18:02 33.3 °C 18.7 °C 1013.1 hPa ESE 5.1 km/h 12.2 km/h 42 % 0.0 mm
18:03 33.2 °C 18.6 °C 1013.1 hPa ESE 5.1 km/h 12.2 km/h 42 % 0.0 mm
18:09 33.0 °C 18.4 °C 1013.1 hPa East 4.2 km/h 9.3 km/h 42 % 0.0 mm
18:14 32.7 °C 18.5 °C 1013.1 hPa East 4.2 km/h 10.1 km/h 43 % 0.0 mm
18:19 32.5 °C 18.3 °C 1013.1 hPa ESE 4.2 km/h 10.1 km/h 43 % 0.0 mm
18:24 32.3 °C 18.1 °C 1013.1 hPa ESE 4.5 km/h 9.7 km/h 43 % 0.0 mm
18:29 32.1 °C 17.9 °C 1013.1 hPa ESE 5.1 km/h 10.1 km/h 43 % 0.0 mm
18:34 31.9 °C 18.1 °C 1013.1 hPa ESE 5.3 km/h 10.1 km/h 44 % 0.0 mm
18:39 31.8 °C 18.4 °C 1013.1 hPa ESE 4.0 km/h 6.9 km/h 45 % 0.0 mm
18:44 31.7 °C 18.3 °C 1013.1 hPa ESE 3.9 km/h 9.7 km/h 45 % 0.0 mm
18:49 31.5 °C 18.5 °C 1013.1 hPa ESE 3.9 km/h 9.7 km/h 46 % 0.0 mm
18:54 31.4 °C 18.4 °C 1013.1 hPa ESE 3.5 km/h 6.4 km/h 46 % 0.0 mm
18:59 31.2 °C 18.6 °C 1013.1 hPa East 2.9 km/h 6.4 km/h 47 % 0.0 mm
19:04 30.9 °C 18.9 °C 1013.1 hPa ENE 1.6 km/h 5.8 km/h 49 % 0.0 mm
19:09 30.7 °C 19.1 °C 1013.1 hPa ENE 0.8 km/h 4.3 km/h 50 % 0.0 mm
19:14 30.5 °C 19.2 °C 1013.1 hPa ESE 1.3 km/h 5.0 km/h 51 % 0.0 mm
19:19 30.1 °C 19.8 °C 1013.1 hPa ESE 1.4 km/h 5.0 km/h 54 % 0.0 mm
19:24 29.8 °C 19.8 °C 1013.1 hPa NNW 1.0 km/h 4.3 km/h 55 % 0.0 mm
19:29 29.4 °C 20.0 °C 1013.1 hPa NNW 0.8 km/h 3.5 km/h 57 % 0.0 mm
19:34 29.1 °C 20.0 °C 1013.1 hPa NNW 0.3 km/h 3.5 km/h 58 % 0.0 mm
19:35 28.9 °C 20.1 °C 1013.1 hPa North 0.2 km/h   59 % 0.0 mm
19:41 28.6 °C 20.3 °C 1013.1 hPa Calm     61 % 0.0 mm
19:46 28.2 °C 20.2 °C 1013.1 hPa Calm   1.8 km/h 62 % 0.0 mm
19:51 28.0 °C 20.3 °C 1013.1 hPa Calm   1.8 km/h 63 % 0.0 mm
19:56 27.7 °C 20.3 °C 1013.1 hPa NNW 0.6 km/h 4.0 km/h 64 % 0.0 mm
20:01 27.4 °C 20.5 °C 1013.1 hPa North 1.0 km/h 4.0 km/h 66 % 0.0 mm
20:06 27.3 °C 20.4 °C 1013.1 hPa NNE 0.3 km/h 2.6 km/h 66 % 0.0 mm
20:11 27.0 °C 20.3 °C 1013.1 hPa Calm   2.6 km/h 67 % 0.0 mm
20:16 26.7 °C 20.3 °C 1013.1 hPa North 0.3 km/h 4.3 km/h 68 % 0.0 mm
20:21 26.6 °C 20.4 °C 1013.1 hPa NNW 1.6 km/h 4.7 km/h 69 % 0.0 mm
20:26 26.4 °C 20.0 °C 1013.1 hPa NW 1.8 km/h 4.7 km/h 68 % 0.0 mm
20:31 26.2 °C 20.3 °C 1013.1 hPa NW 0.8 km/h 3.5 km/h 70 % 0.0 mm
20:41 25.8 °C 20.4 °C 1013.1 hPa North 0.3 km/h 3.5 km/h 72 % 0.0 mm
20:46 25.5 °C 20.3 °C 1013.1 hPa North 0.3 km/h 3.5 km/h 73 % 0.0 mm
20:51 25.3 °C 20.3 °C 1014.1 hPa Calm     74 % 0.0 mm
20:56 25.1 °C 20.1 °C 1014.1 hPa Calm     74 % 0.0 mm
21:01 25.0 °C 20.1 °C 1014.1 hPa Calm     74 % 0.0 mm
21:06 24.8 °C 20.3 °C 1014.1 hPa Calm   1.8 km/h 76 % 0.0 mm
21:11 24.8 °C 20.3 °C 1014.1 hPa NW 1.0 km/h 4.3 km/h 76 % 0.0 mm
21:16 24.7 °C 20.4 °C 1014.1 hPa NW 1.3 km/h 4.3 km/h 77 % 0.0 mm
21:21 24.6 °C 20.3 °C 1014.1 hPa North 0.3 km/h   77 % 0.0 mm
21:26 24.6 °C 20.5 °C 1014.1 hPa Calm     78 % 0.0 mm
21:36 24.4 °C 20.3 °C 1014.1 hPa Calm     78 % 0.0 mm
21:41 24.4 °C 20.3 °C 1014.1 hPa Calm     78 % 0.0 mm
21:46 24.3 °C 20.2 °C 1014.1 hPa Calm     78 % 0.0 mm
21:51 24.3 °C 20.2 °C 1014.1 hPa Calm     78 % 0.0 mm
21:56 24.2 °C 20.1 °C 1014.1 hPa Calm     78 % 0.0 mm
22:02 24.1 °C 20.2 °C 1014.1 hPa Calm     79 % 0.0 mm
22:07 24.1 °C 20.2 °C 1014.1 hPa Calm     79 % 0.0 mm
22:12 24.0 °C 20.1 °C 1014.1 hPa Calm     79 % 0.0 mm
22:17 24.0 °C 20.1 °C 1014.1 hPa Calm     79 % 0.0 mm
22:22 23.8 °C 20.2 °C 1014.1 hPa Calm     80 % 0.0 mm
22:27 23.8 °C 20.2 °C 1014.1 hPa Calm     80 % 0.0 mm
22:32 23.8 °C 20.2 °C 1014.1 hPa Calm     80 % 0.0 mm
22:37 23.8 °C 20.2 °C 1014.1 hPa Calm     80 % 0.0 mm
22:42 23.8 °C 20.2 °C 1014.1 hPa Calm     80 % 0.0 mm
22:52 23.6 °C 20.2 °C 1015.1 hPa Calm     81 % 0.0 mm
22:57 23.6 °C 20.2 °C 1015.1 hPa Calm     81 % 0.0 mm
23:02 23.6 °C 20.2 °C 1015.1 hPa Calm     81 % 0.0 mm
23:07 23.5 °C 20.1 °C 1015.1 hPa Calm     81 % 0.0 mm
23:12 23.5 °C 20.1 °C 1015.1 hPa Calm     81 % 0.0 mm
23:17 23.4 °C 20.2 °C 1015.1 hPa Calm     82 % 0.0 mm
23:22 23.4 °C 19.9 °C 1015.1 hPa Calm     81 % 0.0 mm
23:27 23.4 °C 20.2 °C 1015.1 hPa Calm     82 % 0.0 mm
23:32 23.3 °C 20.1 °C 1015.1 hPa Calm     82 % 0.0 mm
23:37 23.3 °C 20.1 °C 1015.1 hPa Calm     82 % 0.0 mm
23:42 23.3 °C 20.1 °C 1015.1 hPa Calm     82 % 0.0 mm
23:47 23.2 °C 19.9 °C 1015.1 hPa Calm     82 % 0.0 mm
23:52 23.2 °C 19.9 °C 1015.1 hPa Calm     82 % 0.0 mm
23:57 23.1 °C 19.8 °C 1015.1 hPa Calm     82 % 0.0 mm
Vremenska postaja Senovo
Podatki zbrani iz Weather Underground - 3 mb

Script developed by  Jim McMurry - jmcmurry@mwt.net Adapted for the template by  Wim van der Kuil - Leuven-Template.eu

Vremenski podatki so objavljeni na:

WeatherCloud

Weather Underground

AWEKAS

HAMweather, WeatherForYou, PWS Weather

MapView

Geostik

Slovenia weather network

Oprema, ki se uporablja:

Vremenski program
Cumulus

Cumulus